Observations for SHAWBURY RAF, United Kingdom (EGOS)

EGOS 250250Z AUTO 17002KT 9999 NCD M00/M01 Q1012
EGOS 250150Z AUTO 26007KT 9999 NCD 01/M00 Q1012 
EGOS 250050Z AUTO 26008KT 9999 FEW080/// BKN190/// 01/00 Q1012  
EGOS 242350Z AUTO 26007KT 9999 FEW170/// 00/M01 Q1012   
EGOS 242250Z AUTO 26006KT 9999 BKN120/// 01/00 Q1012
EGOS 242150Z AUTO 22006KT 9999 BKN120/// 02/01 Q1012
EGOS 242050Z AUTO 28004KT 9999 FEW014/// SCT160/// 02/01 Q1011 RERA 
EGOS 241950Z AUTO 24005KT 9999 SCT050/// SCT120/// BKN160/// 03/M00 Q1011   
EGOS 241850Z AUTO 22004KT 9999 BKN045/// SCT110/// 03/M00 Q1011 
EGOS 241750Z AUTO 24005KT 9999 NCD 01/M01 Q1011 
EGOS 241650Z 22006KT 9999 FEW024CB 05/M00 Q1011 BLU NOSIG   
EGOS 241550Z 22007KT 9999 FEW024CB 06/00 Q1010 BLU NOSIG
EGOS 241450Z 20005KT 9999 FEW028 07/01 Q1010 BLU NOSIG  
EGOS 241350Z 25007KT 9999 FEW028 08/00 Q1010 BLU NOSIG  
EGOS 241250Z 26008KT 9999 FEW028 07/01 Q1011 BLU NOSIG  
EGOS 241150Z 25009KT 9999 FEW025 07/01 Q1011 BLU NOSIG  
EGOS 241050Z 26009KT 9999 FEW030 06/00 Q1011 BLU NOSIG  
EGOS 240950Z 24006KT 9999 FEW025 03/00 Q1010 BLU NOSIG  
EGOS 240850Z 22005KT 9999 FEW025CB 00/M01 Q1010 BLU NOSIG   
EGOS 240750Z 22002KT 9999 FEW030 00/M00 Q1009 BLU NOSIG 
EGOS 240650Z 25007KT CAVOK M01/M02 Q1008 BLU
EGOS 240550Z 27008KT 9999 FEW025 SCT250 02/M00 Q1007 BLU
EGOS 240450Z AUTO 26007KT 9999 BKN160/// 01/00 Q1007
EGOS 240350Z AUTO 25007KT 9999 OVC150/// 01/M00 Q1006   
EGOS 240250Z AUTO 22006KT 9999 OVC140/// 03/01 Q1006